sensor_id;sensor_type;location;lat;lon;timestamp;P1;durP1;ratioP1;P2;durP2;ratioP2
19605;SDS011;9950;50.168;8.210;2023-07-20T00:02:02;5.57;;;2.53;;
19605;SDS011;9950;50.168;8.210;2023-07-20T00:04:31;4.40;;;2.55;;
19605;SDS011;9950;50.168;8.210;2023-07-20T00:06:59;7.95;;;3.08;;
19605;SDS011;9950;50.168;8.210;2023-07-20T00:09:26;16.38;;;4.30;;
19605;SDS011;9950;50.168;8.210;2023-07-20T00:11:53;4.70;;;3.20;;
19605;SDS011;9950;50.168;8.210;2023-07-20T00:14:20;5.15;;;2.70;;
19605;SDS011;9950;50.168;8.210;2023-07-20T00:16:49;6.03;;;2.80;;
19605;SDS011;9950;50.168;8.210;2023-07-20T00:19:21;5.05;;;3.10;;
19605;SDS011;9950;50.168;8.210;2023-07-20T00:21:49;5.13;;;2.63;;
19605;SDS011;9950;50.168;8.210;2023-07-20T00:24:16;4.68;;;3.28;;
19605;SDS011;9950;50.168;8.210;2023-07-20T00:26:43;5.03;;;2.95;;
19605;SDS011;9950;50.168;8.210;2023-07-20T00:29:10;6.85;;;3.03;;
19605;SDS011;9950;50.168;8.210;2023-07-20T00:31:37;4.70;;;2.97;;
19605;SDS011;9950;50.168;8.210;2023-07-20T00:34:05;5.40;;;2.90;;
19605;SDS011;9950;50.168;8.210;2023-07-20T00:36:32;4.13;;;2.60;;
19605;SDS011;9950;50.168;8.210;2023-07-20T00:39:00;7.53;;;3.13;;
19605;SDS011;9950;50.168;8.210;2023-07-20T00:41:28;4.22;;;2.83;;
19605;SDS011;9950;50.168;8.210;2023-07-20T00:43:55;5.10;;;3.25;;
19605;SDS011;9950;50.168;8.210;2023-07-20T00:46:22;5.68;;;3.08;;
19605;SDS011;9950;50.168;8.210;2023-07-20T00:48:50;7.07;;;2.95;;
19605;SDS011;9950;50.168;8.210;2023-07-20T00:51:18;7.38;;;3.42;;
19605;SDS011;9950;50.168;8.210;2023-07-20T00:53:45;8.77;;;3.13;;
19605;SDS011;9950;50.168;8.210;2023-07-20T00:56:14;5.45;;;2.97;;
19605;SDS011;9950;50.168;8.210;2023-07-20T00:58:41;7.53;;;3.28;;
19605;SDS011;9950;50.168;8.210;2023-07-20T01:01:09;6.80;;;3.17;;
19605;SDS011;9950;50.168;8.210;2023-07-20T01:03:36;6.53;;;3.60;;
19605;SDS011;9950;50.168;8.210;2023-07-20T01:06:06;6.78;;;3.25;;
19605;SDS011;9950;50.168;8.210;2023-07-20T01:08:38;4.63;;;3.10;;
19605;SDS011;9950;50.168;8.210;2023-07-20T01:11:10;6.72;;;3.13;;
19605;SDS011;9950;50.168;8.210;2023-07-20T01:13:39;6.63;;;3.45;;
19605;SDS011;9950;50.168;8.210;2023-07-20T01:16:06;10.20;;;3.47;;
19605;SDS011;9950;50.168;8.210;2023-07-20T01:18:33;5.20;;;3.15;;
19605;SDS011;9950;50.168;8.210;2023-07-20T01:21:03;8.48;;;3.70;;
19605;SDS011;9950;50.168;8.210;2023-07-20T01:23:45;4.78;;;3.33;;
19605;SDS011;9950;50.168;8.210;2023-07-20T01:26:22;6.20;;;3.30;;
19605;SDS011;9950;50.168;8.210;2023-07-20T01:29:11;8.07;;;3.55;;
19605;SDS011;9950;50.168;8.210;2023-07-20T01:31:45;5.35;;;3.50;;
19605;SDS011;9950;50.168;8.210;2023-07-20T01:34:12;4.28;;;3.20;;
19605;SDS011;9950;50.168;8.210;2023-07-20T01:36:44;7.97;;;3.42;;
19605;SDS011;9950;50.168;8.210;2023-07-20T01:39:12;9.55;;;3.83;;
19605;SDS011;9950;50.168;8.210;2023-07-20T01:41:39;6.30;;;3.70;;
19605;SDS011;9950;50.168;8.210;2023-07-20T01:44:07;6.35;;;3.53;;
19605;SDS011;9950;50.168;8.210;2023-07-20T01:46:35;7.13;;;3.20;;
19605;SDS011;9950;50.168;8.210;2023-07-20T01:49:04;5.10;;;3.33;;
19605;SDS011;9950;50.168;8.210;2023-07-20T01:51:31;7.45;;;3.83;;
19605;SDS011;9950;50.168;8.210;2023-07-20T01:53:58;6.57;;;3.65;;
19605;SDS011;9950;50.168;8.210;2023-07-20T01:56:25;4.60;;;3.30;;
19605;SDS011;9950;50.168;8.210;2023-07-20T01:58:53;6.80;;;3.67;;
19605;SDS011;9950;50.168;8.210;2023-07-20T02:01:20;4.75;;;3.45;;
19605;SDS011;9950;50.168;8.210;2023-07-20T02:03:47;9.68;;;3.67;;
19605;SDS011;9950;50.168;8.210;2023-07-20T02:06:15;6.22;;;3.25;;
19605;SDS011;9950;50.168;8.210;2023-07-20T02:08:42;6.97;;;3.55;;
19605;SDS011;9950;50.168;8.210;2023-07-20T02:11:09;6.75;;;3.40;;
19605;SDS011;9950;50.168;8.210;2023-07-20T02:13:37;6.72;;;3.63;;
19605;SDS011;9950;50.168;8.210;2023-07-20T02:16:04;6.65;;;3.17;;
19605;SDS011;9950;50.168;8.210;2023-07-20T02:18:31;5.85;;;3.03;;
19605;SDS011;9950;50.168;8.210;2023-07-20T02:21:00;5.50;;;3.20;;
19605;SDS011;9950;50.168;8.210;2023-07-20T02:23:28;6.88;;;3.42;;
19605;SDS011;9950;50.168;8.210;2023-07-20T02:25:55;6.18;;;3.35;;
19605;SDS011;9950;50.168;8.210;2023-07-20T02:28:23;5.03;;;3.20;;
19605;SDS011;9950;50.168;8.210;2023-07-20T02:30:50;6.57;;;3.70;;
19605;SDS011;9950;50.168;8.210;2023-07-20T02:33:17;6.57;;;3.55;;
19605;SDS011;9950;50.168;8.210;2023-07-20T02:35:45;6.30;;;3.45;;
19605;SDS011;9950;50.168;8.210;2023-07-20T02:38:12;5.93;;;3.35;;
19605;SDS011;9950;50.168;8.210;2023-07-20T02:40:40;4.47;;;3.33;;
19605;SDS011;9950;50.168;8.210;2023-07-20T02:43:07;5.90;;;3.53;;
19605;SDS011;9950;50.168;8.210;2023-07-20T02:45:35;9.27;;;3.70;;
19605;SDS011;9950;50.168;8.210;2023-07-20T02:48:02;5.60;;;3.88;;
19605;SDS011;9950;50.168;8.210;2023-07-20T02:50:33;5.22;;;3.30;;
19605;SDS011;9950;50.168;8.210;2023-07-20T02:53:00;7.78;;;3.78;;
19605;SDS011;9950;50.168;8.210;2023-07-20T02:55:27;5.45;;;3.72;;
19605;SDS011;9950;50.168;8.210;2023-07-20T02:57:55;5.80;;;4.05;;
19605;SDS011;9950;50.168;8.210;2023-07-20T03:00:22;6.30;;;4.00;;
19605;SDS011;9950;50.168;8.210;2023-07-20T03:02:50;7.80;;;3.60;;
19605;SDS011;9950;50.168;8.210;2023-07-20T03:05:20;7.63;;;3.75;;
19605;SDS011;9950;50.168;8.210;2023-07-20T03:07:47;7.20;;;3.88;;
19605;SDS011;9950;50.168;8.210;2023-07-20T03:10:14;9.45;;;3.95;;
19605;SDS011;9950;50.168;8.210;2023-07-20T03:12:42;7.97;;;3.65;;
19605;SDS011;9950;50.168;8.210;2023-07-20T03:15:10;7.95;;;3.53;;
19605;SDS011;9950;50.168;8.210;2023-07-20T03:17:37;9.05;;;4.00;;
19605;SDS011;9950;50.168;8.210;2023-07-20T03:20:05;5.78;;;3.15;;
19605;SDS011;9950;50.168;8.210;2023-07-20T03:22:34;7.80;;;3.50;;
19605;SDS011;9950;50.168;8.210;2023-07-20T03:25:01;7.78;;;3.55;;
19605;SDS011;9950;50.168;8.210;2023-07-20T03:27:29;4.47;;;3.30;;
19605;SDS011;9950;50.168;8.210;2023-07-20T03:29:56;5.00;;;3.33;;
19605;SDS011;9950;50.168;8.210;2023-07-20T03:32:25;5.03;;;3.55;;
19605;SDS011;9950;50.168;8.210;2023-07-20T03:34:52;7.80;;;3.60;;
19605;SDS011;9950;50.168;8.210;2023-07-20T03:37:19;7.72;;;3.88;;
19605;SDS011;9950;50.168;8.210;2023-07-20T03:39:46;5.68;;;3.83;;
19605;SDS011;9950;50.168;8.210;2023-07-20T03:42:14;7.43;;;3.90;;
19605;SDS011;9950;50.168;8.210;2023-07-20T03:44:41;7.80;;;3.75;;
19605;SDS011;9950;50.168;8.210;2023-07-20T03:47:08;7.13;;;3.65;;
19605;SDS011;9950;50.168;8.210;2023-07-20T03:49:36;5.68;;;4.10;;
19605;SDS011;9950;50.168;8.210;2023-07-20T03:52:04;7.07;;;3.85;;
19605;SDS011;9950;50.168;8.210;2023-07-20T03:54:31;5.00;;;3.85;;
19605;SDS011;9950;50.168;8.210;2023-07-20T03:56:58;5.97;;;4.07;;
19605;SDS011;9950;50.168;8.210;2023-07-20T03:59:25;8.75;;;4.05;;
19605;SDS011;9950;50.168;8.210;2023-07-20T04:01:52;7.57;;;4.13;;
19605;SDS011;9950;50.168;8.210;2023-07-20T04:04:20;7.97;;;3.75;;
19605;SDS011;9950;50.168;8.210;2023-07-20T04:06:48;6.68;;;4.40;;
19605;SDS011;9950;50.168;8.210;2023-07-20T04:09:15;9.80;;;4.10;;
19605;SDS011;9950;50.168;8.210;2023-07-20T04:11:42;6.03;;;4.07;;
19605;SDS011;9950;50.168;8.210;2023-07-20T04:14:09;10.13;;;4.07;;
19605;SDS011;9950;50.168;8.210;2023-07-20T04:16:37;5.85;;;3.83;;
19605;SDS011;9950;50.168;8.210;2023-07-20T04:19:04;5.88;;;3.95;;
19605;SDS011;9950;50.168;8.210;2023-07-20T04:21:31;8.70;;;4.10;;
19605;SDS011;9950;50.168;8.210;2023-07-20T04:23:59;9.20;;;4.65;;
19605;SDS011;9950;50.168;8.210;2023-07-20T04:26:26;9.13;;;4.53;;
19605;SDS011;9950;50.168;8.210;2023-07-20T04:28:54;9.05;;;4.47;;
19605;SDS011;9950;50.168;8.210;2023-07-20T04:31:21;6.72;;;4.95;;
19605;SDS011;9950;50.168;8.210;2023-07-20T04:33:48;9.63;;;5.43;;
19605;SDS011;9950;50.168;8.210;2023-07-20T04:36:15;11.45;;;6.32;;
19605;SDS011;9950;50.168;8.210;2023-07-20T04:38:44;10.95;;;5.53;;
19605;SDS011;9950;50.168;8.210;2023-07-20T04:41:12;10.18;;;5.22;;
19605;SDS011;9950;50.168;8.210;2023-07-20T04:43:40;9.32;;;5.47;;
19605;SDS011;9950;50.168;8.210;2023-07-20T04:46:08;10.60;;;6.20;;
19605;SDS011;9950;50.168;8.210;2023-07-20T04:48:35;8.35;;;4.78;;
19605;SDS011;9950;50.168;8.210;2023-07-20T04:51:02;7.70;;;5.25;;
19605;SDS011;9950;50.168;8.210;2023-07-20T04:53:30;8.48;;;5.05;;
19605;SDS011;9950;50.168;8.210;2023-07-20T04:55:57;9.10;;;5.47;;
19605;SDS011;9950;50.168;8.210;2023-07-20T04:58:25;7.45;;;4.78;;
19605;SDS011;9950;50.168;8.210;2023-07-20T05:00:52;10.43;;;5.07;;
19605;SDS011;9950;50.168;8.210;2023-07-20T05:03:20;9.23;;;5.40;;
19605;SDS011;9950;50.168;8.210;2023-07-20T05:05:47;11.18;;;5.20;;
19605;SDS011;9950;50.168;8.210;2023-07-20T05:08:14;11.20;;;5.70;;
19605;SDS011;9950;50.168;8.210;2023-07-20T05:10:41;7.57;;;4.35;;
19605;SDS011;9950;50.168;8.210;2023-07-20T05:13:08;10.13;;;5.05;;
19605;SDS011;9950;50.168;8.210;2023-07-20T05:15:37;7.93;;;4.63;;
19605;SDS011;9950;50.168;8.210;2023-07-20T05:18:04;7.40;;;4.68;;
19605;SDS011;9950;50.168;8.210;2023-07-20T05:20:31;6.97;;;4.25;;
19605;SDS011;9950;50.168;8.210;2023-07-20T05:22:59;5.93;;;4.15;;
19605;SDS011;9950;50.168;8.210;2023-07-20T05:25:26;8.32;;;4.75;;
19605;SDS011;9950;50.168;8.210;2023-07-20T05:27:54;8.43;;;4.15;;
19605;SDS011;9950;50.168;8.210;2023-07-20T05:30:21;5.45;;;3.35;;
19605;SDS011;9950;50.168;8.210;2023-07-20T05:32:49;8.40;;;4.20;;
19605;SDS011;9950;50.168;8.210;2023-07-20T05:35:17;9.20;;;4.35;;
19605;SDS011;9950;50.168;8.210;2023-07-20T05:37:44;7.90;;;3.92;;
19605;SDS011;9950;50.168;8.210;2023-07-20T05:40:12;10.68;;;4.18;;
19605;SDS011;9950;50.168;8.210;2023-07-20T05:42:39;5.03;;;3.67;;
19605;SDS011;9950;50.168;8.210;2023-07-20T05:45:07;6.00;;;3.70;;
19605;SDS011;9950;50.168;8.210;2023-07-20T05:47:34;8.65;;;3.97;;
19605;SDS011;9950;50.168;8.210;2023-07-20T05:50:03;9.27;;;3.40;;
19605;SDS011;9950;50.168;8.210;2023-07-20T05:52:30;6.72;;;3.53;;
19605;SDS011;9950;50.168;8.210;2023-07-20T05:54:57;5.85;;;3.40;;
19605;SDS011;9950;50.168;8.210;2023-07-20T05:57:24;6.93;;;3.33;;
19605;SDS011;9950;50.168;8.210;2023-07-20T05:59:51;6.28;;;3.42;;
19605;SDS011;9950;50.168;8.210;2023-07-20T06:02:19;5.43;;;3.10;;
19605;SDS011;9950;50.168;8.210;2023-07-20T06:04:46;3.97;;;3.58;;
19605;SDS011;9950;50.168;8.210;2023-07-20T06:07:15;7.68;;;3.60;;
19605;SDS011;9950;50.168;8.210;2023-07-20T06:09:42;7.53;;;3.65;;
19605;SDS011;9950;50.168;8.210;2023-07-20T06:12:09;6.22;;;3.75;;
19605;SDS011;9950;50.168;8.210;2023-07-20T06:14:36;5.53;;;3.00;;
19605;SDS011;9950;50.168;8.210;2023-07-20T06:17:03;5.90;;;3.60;;
19605;SDS011;9950;50.168;8.210;2023-07-20T06:19:31;7.50;;;3.63;;
19605;SDS011;9950;50.168;8.210;2023-07-20T06:21:58;7.75;;;3.35;;
19605;SDS011;9950;50.168;8.210;2023-07-20T06:24:26;6.13;;;3.40;;
19605;SDS011;9950;50.168;8.210;2023-07-20T06:26:53;10.07;;;3.78;;
19605;SDS011;9950;50.168;8.210;2023-07-20T06:29:20;9.35;;;3.90;;
19605;SDS011;9950;50.168;8.210;2023-07-20T06:31:49;8.35;;;3.83;;
19605;SDS011;9950;50.168;8.210;2023-07-20T06:34:17;6.22;;;3.28;;
19605;SDS011;9950;50.168;8.210;2023-07-20T06:36:44;8.10;;;3.33;;
19605;SDS011;9950;50.168;8.210;2023-07-20T06:39:11;6.75;;;3.42;;
19605;SDS011;9950;50.168;8.210;2023-07-20T06:41:40;8.38;;;4.20;;
19605;SDS011;9950;50.168;8.210;2023-07-20T06:44:07;7.75;;;3.60;;
19605;SDS011;9950;50.168;8.210;2023-07-20T06:46:34;5.53;;;4.22;;
19605;SDS011;9950;50.168;8.210;2023-07-20T06:49:05;7.85;;;4.30;;
19605;SDS011;9950;50.168;8.210;2023-07-20T06:51:33;7.55;;;4.03;;
19605;SDS011;9950;50.168;8.210;2023-07-20T06:54:00;4.90;;;3.63;;
19605;SDS011;9950;50.168;8.210;2023-07-20T06:56:29;10.38;;;3.80;;
19605;SDS011;9950;50.168;8.210;2023-07-20T06:58:58;6.70;;;3.58;;
19605;SDS011;9950;50.168;8.210;2023-07-20T07:01:25;9.57;;;3.90;;
19605;SDS011;9950;50.168;8.210;2023-07-20T07:03:52;6.07;;;3.28;;
19605;SDS011;9950;50.168;8.210;2023-07-20T07:06:19;7.70;;;3.85;;
19605;SDS011;9950;50.168;8.210;2023-07-20T07:08:47;6.03;;;3.40;;
19605;SDS011;9950;50.168;8.210;2023-07-20T07:11:14;6.88;;;3.20;;
19605;SDS011;9950;50.168;8.210;2023-07-20T07:13:41;9.85;;;3.42;;
19605;SDS011;9950;50.168;8.210;2023-07-20T07:16:13;6.15;;;3.05;;
19605;SDS011;9950;50.168;8.210;2023-07-20T07:18:43;4.43;;;3.22;;
19605;SDS011;9950;50.168;8.210;2023-07-20T07:21:10;5.30;;;3.28;;
19605;SDS011;9950;50.168;8.210;2023-07-20T07:23:38;5.57;;;3.00;;
19605;SDS011;9950;50.168;8.210;2023-07-20T07:26:05;6.00;;;2.88;;
19605;SDS011;9950;50.168;8.210;2023-07-20T07:28:32;4.13;;;2.67;;
19605;SDS011;9950;50.168;8.210;2023-07-20T07:30:59;6.55;;;3.00;;
19605;SDS011;9950;50.168;8.210;2023-07-20T07:33:28;7.05;;;3.00;;
19605;SDS011;9950;50.168;8.210;2023-07-20T07:35:55;4.82;;;3.10;;
19605;SDS011;9950;50.168;8.210;2023-07-20T07:38:22;4.63;;;3.15;;
19605;SDS011;9950;50.168;8.210;2023-07-20T07:40:49;5.95;;;3.00;;
19605;SDS011;9950;50.168;8.210;2023-07-20T07:43:17;5.03;;;3.15;;
19605;SDS011;9950;50.168;8.210;2023-07-20T07:45:44;3.92;;;2.83;;
19605;SDS011;9950;50.168;8.210;2023-07-20T07:48:11;9.30;;;2.80;;
19605;SDS011;9950;50.168;8.210;2023-07-20T07:50:40;4.55;;;2.80;;
19605;SDS011;9950;50.168;8.210;2023-07-20T07:53:07;4.07;;;2.72;;
19605;SDS011;9950;50.168;8.210;2023-07-20T07:55:35;7.95;;;3.30;;
19605;SDS011;9950;50.168;8.210;2023-07-20T07:58:02;5.60;;;3.15;;
19605;SDS011;9950;50.168;8.210;2023-07-20T08:00:29;8.07;;;3.15;;
19605;SDS011;9950;50.168;8.210;2023-07-20T08:02:57;5.30;;;2.95;;
19605;SDS011;9950;50.168;8.210;2023-07-20T08:05:24;7.55;;;3.38;;
19605;SDS011;9950;50.168;8.210;2023-07-20T08:07:52;5.63;;;3.50;;
19605;SDS011;9950;50.168;8.210;2023-07-20T08:10:20;6.25;;;3.28;;
19605;SDS011;9950;50.168;8.210;2023-07-20T08:12:47;4.00;;;3.40;;
19605;SDS011;9950;50.168;8.210;2023-07-20T08:15:14;4.05;;;3.28;;
19605;SDS011;9950;50.168;8.210;2023-07-20T08:17:42;4.72;;;3.13;;
19605;SDS011;9950;50.168;8.210;2023-07-20T08:20:10;5.13;;;2.95;;
19605;SDS011;9950;50.168;8.210;2023-07-20T08:22:37;4.13;;;2.90;;
19605;SDS011;9950;50.168;8.210;2023-07-20T08:25:06;5.10;;;3.13;;
19605;SDS011;9950;50.168;8.210;2023-07-20T08:27:34;4.93;;;3.17;;
19605;SDS011;9950;50.168;8.210;2023-07-20T08:30:01;6.05;;;3.20;;
19605;SDS011;9950;50.168;8.210;2023-07-20T08:32:29;5.57;;;2.70;;
19605;SDS011;9950;50.168;8.210;2023-07-20T08:34:56;4.35;;;2.80;;
19605;SDS011;9950;50.168;8.210;2023-07-20T08:37:23;4.47;;;2.70;;
19605;SDS011;9950;50.168;8.210;2023-07-20T08:39:51;6.07;;;3.33;;
19605;SDS011;9950;50.168;8.210;2023-07-20T08:42:19;6.28;;;3.17;;
19605;SDS011;9950;50.168;8.210;2023-07-20T08:44:47;3.83;;;2.92;;
19605;SDS011;9950;50.168;8.210;2023-07-20T08:47:15;5.65;;;3.72;;
19605;SDS011;9950;50.168;8.210;2023-07-20T08:49:43;6.20;;;3.13;;
19605;SDS011;9950;50.168;8.210;2023-07-20T08:52:10;5.82;;;3.30;;
19605;SDS011;9950;50.168;8.210;2023-07-20T08:54:38;3.92;;;3.00;;
19605;SDS011;9950;50.168;8.210;2023-07-20T08:57:06;5.50;;;3.30;;
19605;SDS011;9950;50.168;8.210;2023-07-20T08:59:34;4.93;;;2.80;;
19605;SDS011;9950;50.168;8.210;2023-07-20T09:02:04;5.88;;;3.00;;
19605;SDS011;9950;50.168;8.210;2023-07-20T09:04:32;7.00;;;3.20;;
19605;SDS011;9950;50.168;8.210;2023-07-20T09:06:59;5.15;;;3.05;;
19605;SDS011;9950;50.168;8.210;2023-07-20T09:09:26;5.15;;;2.97;;
19605;SDS011;9950;50.168;8.210;2023-07-20T09:11:53;5.07;;;3.20;;
19605;SDS011;9950;50.168;8.210;2023-07-20T09:14:20;7.07;;;2.83;;
19605;SDS011;9950;50.168;8.210;2023-07-20T09:16:52;5.88;;;2.55;;
19605;SDS011;9950;50.168;8.210;2023-07-20T09:19:19;5.50;;;2.97;;
19605;SDS011;9950;50.168;8.210;2023-07-20T09:21:47;4.78;;;2.97;;
19605;SDS011;9950;50.168;8.210;2023-07-20T09:24:16;4.28;;;2.45;;
19605;SDS011;9950;50.168;8.210;2023-07-20T09:26:44;3.95;;;2.75;;
19605;SDS011;9950;50.168;8.210;2023-07-20T09:29:13;3.17;;;2.40;;
19605;SDS011;9950;50.168;8.210;2023-07-20T09:31:40;5.38;;;2.80;;
19605;SDS011;9950;50.168;8.210;2023-07-20T09:34:09;4.55;;;1.95;;
19605;SDS011;9950;50.168;8.210;2023-07-20T09:36:36;2.80;;;2.10;;
19605;SDS011;9950;50.168;8.210;2023-07-20T09:39:04;4.03;;;1.95;;
19605;SDS011;9950;50.168;8.210;2023-07-20T09:41:39;3.92;;;1.95;;
19605;SDS011;9950;50.168;8.210;2023-07-20T09:44:07;2.42;;;2.00;;
19605;SDS011;9950;50.168;8.210;2023-07-20T09:46:41;5.45;;;1.85;;
19605;SDS011;9950;50.168;8.210;2023-07-20T09:49:10;4.53;;;1.90;;
19605;SDS011;9950;50.168;8.210;2023-07-20T09:51:37;2.83;;;1.90;;
19605;SDS011;9950;50.168;8.210;2023-07-20T09:54:05;3.67;;;2.38;;
19605;SDS011;9950;50.168;8.210;2023-07-20T09:56:32;2.53;;;1.92;;
19605;SDS011;9950;50.168;8.210;2023-07-20T09:59:00;2.30;;;2.00;;
19605;SDS011;9950;50.168;8.210;2023-07-20T10:01:27;5.80;;;2.50;;
19605;SDS011;9950;50.168;8.210;2023-07-20T10:03:56;3.58;;;2.20;;
19605;SDS011;9950;50.168;8.210;2023-07-20T10:06:27;2.97;;;2.20;;
19605;SDS011;9950;50.168;8.210;2023-07-20T10:08:55;4.63;;;2.17;;
19605;SDS011;9950;50.168;8.210;2023-07-20T10:11:23;2.33;;;1.98;;
19605;SDS011;9950;50.168;8.210;2023-07-20T10:13:55;5.82;;;2.65;;
19605;SDS011;9950;50.168;8.210;2023-07-20T10:16:26;5.00;;;2.50;;
19605;SDS011;9950;50.168;8.210;2023-07-20T10:18:55;3.78;;;2.38;;
19605;SDS011;9950;50.168;8.210;2023-07-20T10:21:27;3.83;;;2.40;;
19605;SDS011;9950;50.168;8.210;2023-07-20T10:23:56;3.63;;;2.35;;
19605;SDS011;9950;50.168;8.210;2023-07-20T10:26:23;4.03;;;2.28;;
19605;SDS011;9950;50.168;8.210;2023-07-20T10:28:50;3.55;;;1.90;;
19605;SDS011;9950;50.168;8.210;2023-07-20T10:31:17;2.60;;;2.00;;
19605;SDS011;9950;50.168;8.210;2023-07-20T10:33:45;6.80;;;2.65;;
19605;SDS011;9950;50.168;8.210;2023-07-20T10:36:13;3.20;;;1.98;;
19605;SDS011;9950;50.168;8.210;2023-07-20T10:38:42;5.30;;;2.58;;
19605;SDS011;9950;50.168;8.210;2023-07-20T10:41:15;3.85;;;2.28;;
19605;SDS011;9950;50.168;8.210;2023-07-20T10:43:43;4.10;;;2.10;;
19605;SDS011;9950;50.168;8.210;2023-07-20T10:46:10;2.85;;;2.20;;
19605;SDS011;9950;50.168;8.210;2023-07-20T10:51:20;4.88;;;2.45;;
19605;SDS011;9950;50.168;8.210;2023-07-20T10:53:49;3.53;;;2.08;;
19605;SDS011;9950;50.168;8.210;2023-07-20T10:56:19;3.78;;;2.28;;
19605;SDS011;9950;50.168;8.210;2023-07-20T10:58:46;2.72;;;1.95;;
19605;SDS011;9950;50.168;8.210;2023-07-20T11:01:14;2.75;;;1.90;;
19605;SDS011;9950;50.168;8.210;2023-07-20T11:03:41;2.70;;;1.80;;
19605;SDS011;9950;50.168;8.210;2023-07-20T11:06:30;5.40;;;2.05;;
19605;SDS011;9950;50.168;8.210;2023-07-20T11:09:04;3.35;;;1.80;;
19605;SDS011;9950;50.168;8.210;2023-07-20T11:11:34;5.10;;;1.83;;
19605;SDS011;9950;50.168;8.210;2023-07-20T11:14:03;2.88;;;1.80;;
19605;SDS011;9950;50.168;8.210;2023-07-20T11:16:40;5.32;;;1.83;;
19605;SDS011;9950;50.168;8.210;2023-07-20T11:19:15;2.58;;;2.00;;
19605;SDS011;9950;50.168;8.210;2023-07-20T11:21:42;3.20;;;2.00;;
19605;SDS011;9950;50.168;8.210;2023-07-20T11:24:11;2.53;;;2.08;;
19605;SDS011;9950;50.168;8.210;2023-07-20T11:26:39;3.05;;;2.33;;
19605;SDS011;9950;50.168;8.210;2023-07-20T11:29:06;6.72;;;2.53;;
19605;SDS011;9950;50.168;8.210;2023-07-20T11:31:37;5.43;;;2.03;;
19605;SDS011;9950;50.168;8.210;2023-07-20T11:34:04;3.70;;;1.42;;
19605;SDS011;9950;50.168;8.210;2023-07-20T11:36:31;3.58;;;1.73;;
19605;SDS011;9950;50.168;8.210;2023-07-20T11:39:00;3.75;;;1.67;;
19605;SDS011;9950;50.168;8.210;2023-07-20T11:41:31;3.60;;;1.88;;
19605;SDS011;9950;50.168;8.210;2023-07-20T11:43:58;3.65;;;1.85;;
19605;SDS011;9950;50.168;8.210;2023-07-20T11:46:27;2.65;;;1.60;;
19605;SDS011;9950;50.168;8.210;2023-07-20T11:48:56;2.92;;;1.83;;
19605;SDS011;9950;50.168;8.210;2023-07-20T11:51:24;2.10;;;1.55;;
19605;SDS011;9950;50.168;8.210;2023-07-20T11:53:51;2.63;;;1.50;;
19605;SDS011;9950;50.168;8.210;2023-07-20T11:56:19;1.52;;;1.35;;
19605;SDS011;9950;50.168;8.210;2023-07-20T11:58:47;7.95;;;2.05;;
19605;SDS011;9950;50.168;8.210;2023-07-20T12:01:14;2.55;;;1.50;;
19605;SDS011;9950;50.168;8.210;2023-07-20T12:03:42;4.25;;;1.83;;
19605;SDS011;9950;50.168;8.210;2023-07-20T12:06:09;2.97;;;1.60;;
19605;SDS011;9950;50.168;8.210;2023-07-20T12:08:40;3.35;;;1.80;;
19605;SDS011;9950;50.168;8.210;2023-07-20T12:11:08;1.65;;;1.45;;
19605;SDS011;9950;50.168;8.210;2023-07-20T12:13:35;2.47;;;1.60;;
19605;SDS011;9950;50.168;8.210;2023-07-20T12:16:08;2.25;;;1.45;;
19605;SDS011;9950;50.168;8.210;2023-07-20T12:18:35;2.50;;;1.70;;
19605;SDS011;9950;50.168;8.210;2023-07-20T12:21:03;2.42;;;1.42;;
19605;SDS011;9950;50.168;8.210;2023-07-20T12:23:34;4.45;;;1.67;;
19605;SDS011;9950;50.168;8.210;2023-07-20T12:26:02;2.10;;;1.45;;
19605;SDS011;9950;50.168;8.210;2023-07-20T12:28:30;5.03;;;1.73;;
19605;SDS011;9950;50.168;8.210;2023-07-20T12:30:58;3.00;;;1.80;;
19605;SDS011;9950;50.168;8.210;2023-07-20T12:33:27;3.25;;;1.50;;
19605;SDS011;9950;50.168;8.210;2023-07-20T12:35:54;3.33;;;1.70;;
19605;SDS011;9950;50.168;8.210;2023-07-20T12:38:24;5.70;;;1.83;;
19605;SDS011;9950;50.168;8.210;2023-07-20T12:40:52;3.50;;;1.50;;
19605;SDS011;9950;50.168;8.210;2023-07-20T12:43:20;2.20;;;1.50;;
19605;SDS011;9950;50.168;8.210;2023-07-20T12:45:47;2.00;;;1.60;;
19605;SDS011;9950;50.168;8.210;2023-07-20T12:48:14;3.65;;;1.63;;
19605;SDS011;9950;50.168;8.210;2023-07-20T12:50:43;3.78;;;1.52;;
19605;SDS011;9950;50.168;8.210;2023-07-20T12:53:10;4.22;;;1.80;;
19605;SDS011;9950;50.168;8.210;2023-07-20T12:55:38;2.42;;;1.38;;
19605;SDS011;9950;50.168;8.210;2023-07-20T12:58:06;1.85;;;1.42;;
19605;SDS011;9950;50.168;8.210;2023-07-20T13:00:33;2.05;;;1.40;;
19605;SDS011;9950;50.168;8.210;2023-07-20T13:03:01;1.75;;;1.48;;
19605;SDS011;9950;50.168;8.210;2023-07-20T13:05:29;4.05;;;2.05;;
19605;SDS011;9950;50.168;8.210;2023-07-20T13:07:59;2.95;;;1.42;;
19605;SDS011;9950;50.168;8.210;2023-07-20T13:10:26;4.30;;;1.70;;
19605;SDS011;9950;50.168;8.210;2023-07-20T13:12:54;3.53;;;1.60;;
19605;SDS011;9950;50.168;8.210;2023-07-20T13:15:24;5.38;;;1.77;;
19605;SDS011;9950;50.168;8.210;2023-07-20T13:17:51;1.92;;;1.52;;
19605;SDS011;9950;50.168;8.210;2023-07-20T13:20:18;2.00;;;1.67;;
19605;SDS011;9950;50.168;8.210;2023-07-20T13:22:45;2.40;;;1.70;;
19605;SDS011;9950;50.168;8.210;2023-07-20T13:25:14;2.25;;;1.65;;
19605;SDS011;9950;50.168;8.210;2023-07-20T13:27:41;4.43;;;1.45;;
19605;SDS011;9950;50.168;8.210;2023-07-20T13:30:08;4.10;;;1.40;;
19605;SDS011;9950;50.168;8.210;2023-07-20T13:32:41;2.20;;;1.13;;
19605;SDS011;9950;50.168;8.210;2023-07-20T13:35:08;4.50;;;1.75;;
19605;SDS011;9950;50.168;8.210;2023-07-20T13:37:35;3.25;;;1.70;;
19605;SDS011;9950;50.168;8.210;2023-07-20T13:40:03;4.15;;;1.80;;
19605;SDS011;9950;50.168;8.210;2023-07-20T13:42:32;1.77;;;1.50;;
19605;SDS011;9950;50.168;8.210;2023-07-20T13:44:59;2.08;;;1.55;;
19605;SDS011;9950;50.168;8.210;2023-07-20T13:47:26;2.33;;;1.52;;
19605;SDS011;9950;50.168;8.210;2023-07-20T13:49:54;2.97;;;1.30;;
19605;SDS011;9950;50.168;8.210;2023-07-20T13:52:22;3.03;;;1.58;;
19605;SDS011;9950;50.168;8.210;2023-07-20T13:54:49;2.05;;;1.45;;
19605;SDS011;9950;50.168;8.210;2023-07-20T13:57:16;2.35;;;1.30;;
19605;SDS011;9950;50.168;8.210;2023-07-20T13:59:45;2.13;;;1.40;;
19605;SDS011;9950;50.168;8.210;2023-07-20T14:02:13;2.88;;;1.30;;
19605;SDS011;9950;50.168;8.210;2023-07-20T14:04:41;2.67;;;1.50;;
19605;SDS011;9950;50.168;8.210;2023-07-20T14:07:08;2.38;;;1.65;;
19605;SDS011;9950;50.168;8.210;2023-07-20T14:09:36;4.07;;;1.88;;
19605;SDS011;9950;50.168;8.210;2023-07-20T14:12:04;1.83;;;1.23;;
19605;SDS011;9950;50.168;8.210;2023-07-20T14:14:31;2.08;;;1.45;;
19605;SDS011;9950;50.168;8.210;2023-07-20T14:16:59;2.78;;;1.30;;
19605;SDS011;9950;50.168;8.210;2023-07-20T14:19:27;3.90;;;1.50;;
19605;SDS011;9950;50.168;8.210;2023-07-20T14:21:54;4.07;;;1.33;;
19605;SDS011;9950;50.168;8.210;2023-07-20T14:24:24;4.70;;;1.20;;
19605;SDS011;9950;50.168;8.210;2023-07-20T14:26:51;3.67;;;1.27;;
19605;SDS011;9950;50.168;8.210;2023-07-20T14:29:19;1.85;;;1.30;;
19605;SDS011;9950;50.168;8.210;2023-07-20T14:31:46;1.88;;;1.30;;
19605;SDS011;9950;50.168;8.210;2023-07-20T14:34:16;3.15;;;1.52;;
19605;SDS011;9950;50.168;8.210;2023-07-20T14:36:44;5.32;;;1.50;;
19605;SDS011;9950;50.168;8.210;2023-07-20T14:39:11;2.90;;;1.50;;
19605;SDS011;9950;50.168;8.210;2023-07-20T14:41:38;3.10;;;1.40;;
19605;SDS011;9950;50.168;8.210;2023-07-20T14:44:06;2.08;;;1.50;;
19605;SDS011;9950;50.168;8.210;2023-07-20T14:46:35;1.30;;;1.10;;
19605;SDS011;9950;50.168;8.210;2023-07-20T14:49:02;2.20;;;1.20;;
19605;SDS011;9950;50.168;8.210;2023-07-20T14:51:31;4.60;;;1.35;;
19605;SDS011;9950;50.168;8.210;2023-07-20T14:54:01;4.35;;;1.60;;
19605;SDS011;9950;50.168;8.210;2023-07-20T14:56:28;6.90;;;1.35;;
19605;SDS011;9950;50.168;8.210;2023-07-20T14:58:55;1.63;;;1.38;;
19605;SDS011;9950;50.168;8.210;2023-07-20T15:01:23;1.60;;;1.20;;
19605;SDS011;9950;50.168;8.210;2023-07-20T15:03:50;3.15;;;1.58;;
19605;SDS011;9950;50.168;8.210;2023-07-20T15:06:18;3.70;;;1.40;;
19605;SDS011;9950;50.168;8.210;2023-07-20T15:08:47;1.75;;;1.20;;